sensor_id;sensor_type;location;lat;lon;timestamp;pressure;altitude;pressure_sealevel;temperature;humidity
76694;BME280;65625;52.136;5.424;2022-12-18T00:03:42;102987.25;;;-3.77;93.31
76694;BME280;65625;52.136;5.424;2022-12-18T00:06:11;102982.75;;;-3.84;93.66
76694;BME280;65625;52.136;5.424;2022-12-18T00:08:38;102977.38;;;-3.89;93.51
76694;BME280;65625;52.136;5.424;2022-12-18T00:11:06;102963.19;;;-3.97;93.22
76694;BME280;65625;52.136;5.424;2022-12-18T00:13:33;102966.66;;;-4.01;93.75
76694;BME280;65625;52.136;5.424;2022-12-18T00:16:05;102961.28;;;-4.04;93.49
76694;BME280;65625;52.136;5.424;2022-12-18T00:18:32;102963.03;;;-4.06;93.56
76694;BME280;65625;52.136;5.424;2022-12-18T00:21:01;102967.44;;;-4.05;93.33
76694;BME280;65625;52.136;5.424;2022-12-18T00:23:29;102968.47;;;-3.97;93.32
76694;BME280;65625;52.136;5.424;2022-12-18T00:26:00;102972.88;;;-3.96;93.47
76694;BME280;65625;52.136;5.424;2022-12-18T00:28:30;102976.38;;;-3.97;93.37
76694;BME280;65625;52.136;5.424;2022-12-18T00:31:04;102980.81;;;-3.96;93.33
76694;BME280;65625;52.136;5.424;2022-12-18T00:33:32;102975.56;;;-3.94;93.40
76694;BME280;65625;52.136;5.424;2022-12-18T00:38:33;102966.81;;;-3.90;93.73
76694;BME280;65625;52.136;5.424;2022-12-18T00:41:00;102970.34;;;-3.90;93.67
76694;BME280;65625;52.136;5.424;2022-12-18T00:43:27;102965.13;;;-3.87;93.22
76694;BME280;65625;52.136;5.424;2022-12-18T00:45:53;102964.19;;;-3.90;93.59
76694;BME280;65625;52.136;5.424;2022-12-18T00:48:20;102965.81;;;-3.97;93.63
76694;BME280;65625;52.136;5.424;2022-12-18T00:50:48;102963.19;;;-3.97;93.21
76694;BME280;65625;52.136;5.424;2022-12-18T00:53:15;102963.19;;;-3.97;93.33
76694;BME280;65625;52.136;5.424;2022-12-18T00:55:42;102966.72;;;-3.96;93.49
76694;BME280;65625;52.136;5.424;2022-12-18T00:58:10;102972.81;;;-3.99;93.61
76694;BME280;65625;52.136;5.424;2022-12-18T01:00:37;102969.31;;;-3.99;93.30
76694;BME280;65625;52.136;5.424;2022-12-18T01:03:05;102968.47;;;-3.97;93.01
76694;BME280;65625;52.136;5.424;2022-12-18T01:05:31;102964.03;;;-3.99;93.02
76694;BME280;65625;52.136;5.424;2022-12-18T01:07:59;102957.81;;;-4.03;93.02
76694;BME280;65625;52.136;5.424;2022-12-18T01:10:25;102950.66;;;-4.10;93.03
76694;BME280;65625;52.136;5.424;2022-12-18T01:12:56;102950.69;;;-4.07;93.20
76694;BME280;65625;52.136;5.424;2022-12-18T01:15:22;102945.38;;;-4.10;93.29
76694;BME280;65625;52.136;5.424;2022-12-18T01:17:52;102957.63;;;-4.12;93.43
76694;BME280;65625;52.136;5.424;2022-12-18T01:20:18;102960.25;;;-4.13;93.27
76694;BME280;65625;52.136;5.424;2022-12-18T01:22:45;102960.28;;;-4.12;93.54
76694;BME280;65625;52.136;5.424;2022-12-18T01:25:12;102960.25;;;-4.13;93.41
76694;BME280;65625;52.136;5.424;2022-12-18T01:27:38;102972.63;;;-4.09;93.54
76694;BME280;65625;52.136;5.424;2022-12-18T01:30:05;102977.88;;;-4.11;93.67
76694;BME280;65625;52.136;5.424;2022-12-18T01:32:32;102973.44;;;-4.12;93.10
76694;BME280;65625;52.136;5.424;2022-12-18T01:35:01;102977.78;;;-4.14;93.10
76694;BME280;65625;52.136;5.424;2022-12-18T01:37:27;102977.69;;;-4.20;93.12
76694;BME280;65625;52.136;5.424;2022-12-18T01:39:54;102968.88;;;-4.20;93.42
76694;BME280;65625;52.136;5.424;2022-12-18T01:42:23;102977.66;;;-4.21;93.21
76694;BME280;65625;52.136;5.424;2022-12-18T01:52:47;102982.56;;;-4.41;93.72
76694;BME280;65625;52.136;5.424;2022-12-18T01:55:17;102982.41;;;-4.48;93.53
76694;BME280;65625;52.136;5.424;2022-12-18T01:57:46;102980.50;;;-4.55;93.47
76694;BME280;65625;52.136;5.424;2022-12-18T02:00:17;102984.81;;;-4.59;93.92
76694;BME280;65625;52.136;5.424;2022-12-18T02:02:45;102980.34;;;-4.63;93.82
76694;BME280;65625;52.136;5.424;2022-12-18T02:05:16;102988.16;;;-4.67;93.83
76694;BME280;65625;52.136;5.424;2022-12-18T02:13:40;102992.28;;;-4.78;93.88
76694;BME280;65625;52.136;5.424;2022-12-18T02:16:34;102981.78;;;-4.77;94.31
76694;BME280;65625;52.136;5.424;2022-12-18T02:21:57;102993.16;;;-4.79;93.74
76694;BME280;65625;52.136;5.424;2022-12-18T02:24:42;102989.56;;;-4.83;94.13
76694;BME280;65625;52.136;5.424;2022-12-18T02:27:12;102985.97;;;-4.86;93.96
76694;BME280;65625;52.136;5.424;2022-12-18T02:29:44;103005.28;;;-4.87;94.16
76694;BME280;65625;52.136;5.424;2022-12-18T02:32:24;102995.59;;;-4.88;94.10
76694;BME280;65625;52.136;5.424;2022-12-18T02:34:55;102995.56;;;-4.90;93.76
76694;BME280;65625;52.136;5.424;2022-12-18T02:37:26;102987.69;;;-4.88;94.28
76694;BME280;65625;52.136;5.424;2022-12-18T02:39:54;102989.41;;;-4.89;93.78
76694;BME280;65625;52.136;5.424;2022-12-18T02:42:23;102985.88;;;-4.91;94.08
76694;BME280;65625;52.136;5.424;2022-12-18T02:44:51;102987.59;;;-4.93;93.99
76694;BME280;65625;52.136;5.424;2022-12-18T02:47:27;102978.75;;;-4.95;93.97
76694;BME280;65625;52.136;5.424;2022-12-18T02:50:02;102968.16;;;-4.99;93.89
76694;BME280;65625;52.136;5.424;2022-12-18T02:52:49;102966.34;;;-5.00;93.63
76694;BME280;65625;52.136;5.424;2022-12-18T02:55:46;102967.97;;;-5.07;93.58
76694;BME280;65625;52.136;5.424;2022-12-18T02:58:26;102973.16;;;-5.10;93.92
76694;BME280;65625;52.136;5.424;2022-12-18T03:03:50;102960.84;;;-5.12;93.76
76694;BME280;65625;52.136;5.424;2022-12-18T03:06:25;102955.53;;;-5.14;93.49
76694;BME280;65625;52.136;5.424;2022-12-18T03:08:59;102957.22;;;-5.18;93.74
76694;BME280;65625;52.136;5.424;2022-12-18T03:11:33;102955.38;;;-5.20;93.25
76694;BME280;65625;52.136;5.424;2022-12-18T03:14:21;102948.34;;;-5.21;93.68
76694;BME280;65625;52.136;5.424;2022-12-18T03:16:53;102947.47;;;-5.22;93.33
76694;BME280;65625;52.136;5.424;2022-12-18T03:19:22;102960.56;;;-5.25;93.27
76694;BME280;65625;52.136;5.424;2022-12-18T03:21:54;102950.75;;;-5.32;93.39
76694;BME280;65625;52.136;5.424;2022-12-18T03:24:26;102948.88;;;-5.36;93.35
76694;BME280;65625;52.136;5.424;2022-12-18T03:27:01;102943.59;;;-5.37;93.01
76694;BME280;65625;52.136;5.424;2022-12-18T03:29:36;102935.69;;;-5.37;93.75
76694;BME280;65625;52.136;5.424;2022-12-18T03:32:09;102946.22;;;-5.37;93.11
76694;BME280;65625;52.136;5.424;2022-12-18T03:34:40;102938.28;;;-5.39;93.50
76694;BME280;65625;52.136;5.424;2022-12-18T03:37:12;102933.91;;;-5.40;93.03
76694;BME280;65625;52.136;5.424;2022-12-18T03:39:39;102932.91;;;-5.45;93.27
76694;BME280;65625;52.136;5.424;2022-12-18T03:42:28;102928.56;;;-5.43;93.10
76694;BME280;65625;52.136;5.424;2022-12-18T03:45:12;102924.16;;;-5.44;92.93
76694;BME280;65625;52.136;5.424;2022-12-18T03:50:54;102922.19;;;-5.52;92.78
76694;BME280;65625;52.136;5.424;2022-12-18T03:56:00;102924.81;;;-5.52;92.94
76694;BME280;65625;52.136;5.424;2022-12-18T03:58:34;102921.31;;;-5.53;93.05
76694;BME280;65625;52.136;5.424;2022-12-18T04:01:22;102916.97;;;-5.51;92.99
76694;BME280;65625;52.136;5.424;2022-12-18T04:03:51;102912.53;;;-5.53;93.08
76694;BME280;65625;52.136;5.424;2022-12-18T04:06:20;102919.56;;;-5.52;93.09
76694;BME280;65625;52.136;5.424;2022-12-18T04:08:47;102910.75;;;-5.54;92.88
76694;BME280;65625;52.136;5.424;2022-12-18T04:11:19;102911.63;;;-5.54;93.07
76694;BME280;65625;52.136;5.424;2022-12-18T04:13:47;102911.66;;;-5.52;93.05
76694;BME280;65625;52.136;5.424;2022-12-18T04:16:19;102907.22;;;-5.56;93.02
76694;BME280;65625;52.136;5.424;2022-12-18T04:18:49;102894.09;;;-5.55;92.91
76694;BME280;65625;52.136;5.424;2022-12-18T04:21:18;102890.53;;;-5.57;92.67
76694;BME280;65625;52.136;5.424;2022-12-18T04:23:47;102889.63;;;-5.57;92.93
76694;BME280;65625;52.136;5.424;2022-12-18T04:26:13;102887.00;;;-5.57;92.89
76694;BME280;65625;52.136;5.424;2022-12-18T04:29:08;102884.38;;;-5.57;92.81
76694;BME280;65625;52.136;5.424;2022-12-18T04:31:36;102886.09;;;-5.59;92.79
76694;BME280;65625;52.136;5.424;2022-12-18T04:34:04;102890.41;;;-5.63;92.72
76694;BME280;65625;52.136;5.424;2022-12-18T04:36:37;102888.63;;;-5.62;92.27
76694;BME280;65625;52.136;5.424;2022-12-18T04:39:04;102885.16;;;-5.63;92.80
76694;BME280;65625;52.136;5.424;2022-12-18T04:41:30;102888.59;;;-5.64;92.53
76694;BME280;65625;52.136;5.424;2022-12-18T04:43:57;102897.34;;;-5.65;92.59
76694;BME280;65625;52.136;5.424;2022-12-18T04:46:24;102898.13;;;-5.69;92.63
76694;BME280;65625;52.136;5.424;2022-12-18T04:48:51;102899.03;;;-5.68;92.57
76694;BME280;65625;52.136;5.424;2022-12-18T04:51:17;102910.44;;;-5.68;92.24
76694;BME280;65625;52.136;5.424;2022-12-18T04:53:51;102915.66;;;-5.69;92.33
76694;BME280;65625;52.136;5.424;2022-12-18T04:56:18;102916.44;;;-5.73;92.25
76694;BME280;65625;52.136;5.424;2022-12-18T04:58:45;102914.69;;;-5.73;92.46
76694;BME280;65625;52.136;5.424;2022-12-18T05:01:13;102920.00;;;-5.71;92.25
76694;BME280;65625;52.136;5.424;2022-12-18T05:03:40;102926.00;;;-5.75;92.43
76694;BME280;65625;52.136;5.424;2022-12-18T05:06:07;102926.94;;;-5.73;92.42
76694;BME280;65625;52.136;5.424;2022-12-18T05:08:34;102936.59;;;-5.72;92.46
76694;BME280;65625;52.136;5.424;2022-12-18T05:11:03;102939.13;;;-5.77;92.39
76694;BME280;65625;52.136;5.424;2022-12-18T05:13:33;102944.31;;;-5.80;92.36
76694;BME280;65625;52.136;5.424;2022-12-18T05:16:00;102939.06;;;-5.80;92.53
76694;BME280;65625;52.136;5.424;2022-12-18T05:18:27;102947.00;;;-5.77;92.08
76694;BME280;65625;52.136;5.424;2022-12-18T05:20:54;102947.03;;;-5.75;92.40
76694;BME280;65625;52.136;5.424;2022-12-18T05:23:22;102945.28;;;-5.76;91.89
76694;BME280;65625;52.136;5.424;2022-12-18T05:25:56;102943.50;;;-5.77;92.06
76694;BME280;65625;52.136;5.424;2022-12-18T05:28:24;102954.91;;;-5.77;92.14
76694;BME280;65625;52.136;5.424;2022-12-18T05:30:53;102961.06;;;-5.76;92.23
76694;BME280;65625;52.136;5.424;2022-12-18T05:33:21;102968.03;;;-5.77;91.97
76694;BME280;65625;52.136;5.424;2022-12-18T05:35:54;102959.25;;;-5.77;91.90
76694;BME280;65625;52.136;5.424;2022-12-18T05:38:23;102960.19;;;-5.75;91.86
76694;BME280;65625;52.136;5.424;2022-12-18T05:40:51;102948.78;;;-5.76;91.78
76694;BME280;65625;52.136;5.424;2022-12-18T05:43:19;102951.41;;;-5.76;91.92
76694;BME280;65625;52.136;5.424;2022-12-18T05:45:47;102949.66;;;-5.77;91.84
76694;BME280;65625;52.136;5.424;2022-12-18T05:48:16;102933.84;;;-5.78;91.89
76694;BME280;65625;52.136;5.424;2022-12-18T05:50:44;102939.91;;;-5.81;91.81
76694;BME280;65625;52.136;5.424;2022-12-18T05:53:13;102932.91;;;-5.80;91.87
76694;BME280;65625;52.136;5.424;2022-12-18T05:55:41;102932.06;;;-5.79;91.69
76694;BME280;65625;52.136;5.424;2022-12-18T05:58:09;102930.25;;;-5.83;91.70
76694;BME280;65625;52.136;5.424;2022-12-18T06:00:38;102931.97;;;-5.84;91.72
76694;BME280;65625;52.136;5.424;2022-12-18T06:03:09;102928.50;;;-5.83;92.04
76694;BME280;65625;52.136;5.424;2022-12-18T06:05:37;102922.25;;;-5.88;91.67
76694;BME280;65625;52.136;5.424;2022-12-18T06:08:04;102925.63;;;-5.92;91.79
76694;BME280;65625;52.136;5.424;2022-12-18T06:10:31;102912.44;;;-5.95;91.61
76694;BME280;65625;52.136;5.424;2022-12-18T06:12:58;102916.75;;;-5.97;91.40
76694;BME280;65625;52.136;5.424;2022-12-18T06:15:25;102916.66;;;-6.01;91.81
76694;BME280;65625;52.136;5.424;2022-12-18T06:17:52;102913.00;;;-6.06;91.63
76694;BME280;65625;52.136;5.424;2022-12-18T06:20:18;102909.41;;;-6.10;91.57
76694;BME280;65625;52.136;5.424;2022-12-18T06:22:45;102903.25;;;-6.10;91.71
76694;BME280;65625;52.136;5.424;2022-12-18T06:25:11;102906.75;;;-6.11;91.81
76694;BME280;65625;52.136;5.424;2022-12-18T06:27:38;102898.69;;;-6.17;91.44
76694;BME280;65625;52.136;5.424;2022-12-18T06:30:06;102904.78;;;-6.20;91.24
76694;BME280;65625;52.136;5.424;2022-12-18T06:32:33;102895.03;;;-6.24;91.59
76694;BME280;65625;52.136;5.424;2022-12-18T06:34:59;102895.00;;;-6.25;91.37
76694;BME280;65625;52.136;5.424;2022-12-18T06:37:25;102896.66;;;-6.29;91.57
76694;BME280;65625;52.136;5.424;2022-12-18T06:39:55;102886.09;;;-6.30;91.57
76694;BME280;65625;52.136;5.424;2022-12-18T06:42:23;102886.03;;;-6.33;91.63
76694;BME280;65625;52.136;5.424;2022-12-18T06:44:50;102888.66;;;-6.33;91.88
76694;BME280;65625;52.136;5.424;2022-12-18T06:47:18;102885.06;;;-6.37;91.65
76694;BME280;65625;52.136;5.424;2022-12-18T06:49:44;102879.72;;;-6.40;91.59
76694;BME280;65625;52.136;5.424;2022-12-18T06:52:11;102865.66;;;-6.42;91.74
76694;BME280;65625;52.136;5.424;2022-12-18T06:54:37;102874.34;;;-6.46;91.91
76694;BME280;65625;52.136;5.424;2022-12-18T06:57:04;102869.91;;;-6.47;91.62
76694;BME280;65625;52.136;5.424;2022-12-18T06:59:30;102871.56;;;-6.51;91.70
76694;BME280;65625;52.136;5.424;2022-12-18T07:01:57;102865.41;;;-6.53;91.33
76694;BME280;65625;52.136;5.424;2022-12-18T07:04:29;102852.19;;;-6.56;91.51
76694;BME280;65625;52.136;5.424;2022-12-18T07:06:56;102856.56;;;-6.56;92.06
76694;BME280;65625;52.136;5.424;2022-12-18T07:09:24;102854.75;;;-6.57;91.86
76694;BME280;65625;52.136;5.424;2022-12-18T07:11:51;102856.56;;;-6.56;91.67
76694;BME280;65625;52.136;5.424;2022-12-18T07:14:18;102856.56;;;-6.56;91.79
76694;BME280;65625;52.136;5.424;2022-12-18T07:16:45;102847.78;;;-6.57;91.76
76694;BME280;65625;52.136;5.424;2022-12-18T07:19:11;102845.34;;;-6.49;91.58
76694;BME280;65625;52.136;5.424;2022-12-18T07:21:38;102842.91;;;-6.43;91.67
76694;BME280;65625;52.136;5.424;2022-12-18T07:24:05;102854.34;;;-6.41;91.59
76694;BME280;65625;52.136;5.424;2022-12-18T07:26:32;102849.91;;;-6.42;91.64
76694;BME280;65625;52.136;5.424;2022-12-18T07:28:58;102842.94;;;-6.41;91.63
76694;BME280;65625;52.136;5.424;2022-12-18T07:31:25;102843.78;;;-6.42;91.83
76694;BME280;65625;52.136;5.424;2022-12-18T07:33:52;102837.59;;;-6.44;91.27
76694;BME280;65625;52.136;5.424;2022-12-18T07:36:19;102829.72;;;-6.44;91.16
76694;BME280;65625;52.136;5.424;2022-12-18T07:38:49;102821.84;;;-6.44;91.59
76694;BME280;65625;52.136;5.424;2022-12-18T07:41:18;102821.78;;;-6.47;91.55
76694;BME280;65625;52.136;5.424;2022-12-18T07:43:45;102827.03;;;-6.47;91.40
76694;BME280;65625;52.136;5.424;2022-12-18T07:46:13;102817.41;;;-6.47;91.36
76694;BME280;65625;52.136;5.424;2022-12-18T07:48:41;102812.19;;;-6.45;91.35
76694;BME280;65625;52.136;5.424;2022-12-18T07:51:12;102810.44;;;-6.45;91.59
76694;BME280;65625;52.136;5.424;2022-12-18T07:53:39;102806.13;;;-6.43;91.15
76694;BME280;65625;52.136;5.424;2022-12-18T07:56:11;102800.09;;;-6.39;91.17
76694;BME280;65625;52.136;5.424;2022-12-18T07:58:57;102793.25;;;-6.32;91.32
76694;BME280;65625;52.136;5.424;2022-12-18T08:01:24;102804.69;;;-6.30;91.28
76694;BME280;65625;52.136;5.424;2022-12-18T08:03:51;102802.25;;;-6.23;91.47
76694;BME280;65625;52.136;5.424;2022-12-18T08:06:18;102802.34;;;-6.18;91.09
76694;BME280;65625;52.136;5.424;2022-12-18T08:08:53;102785.97;;;-6.08;91.12
76694;BME280;65625;52.136;5.424;2022-12-18T08:11:20;102774.75;;;-6.01;91.17
76694;BME280;65625;52.136;5.424;2022-12-18T08:13:47;102769.78;;;-5.89;91.08
76694;BME280;65625;52.136;5.424;2022-12-18T08:16:14;102772.50;;;-5.82;90.59
76694;BME280;65625;52.136;5.424;2022-12-18T08:18:41;102771.84;;;-5.73;90.85
76694;BME280;65625;52.136;5.424;2022-12-18T08:23:35;102778.31;;;-5.58;90.60
76694;BME280;65625;52.136;5.424;2022-12-18T08:26:08;102785.53;;;-5.49;90.60
76694;BME280;65625;52.136;5.424;2022-12-18T08:28:35;102785.72;;;-5.39;90.76
76694;BME280;65625;52.136;5.424;2022-12-18T08:31:02;102799.91;;;-5.31;90.45
76694;BME280;65625;52.136;5.424;2022-12-18T08:33:29;102808.94;;;-5.20;90.33
76694;BME280;65625;52.136;5.424;2022-12-18T08:35:55;102813.34;;;-5.17;90.17
76694;BME280;65625;52.136;5.424;2022-12-18T08:38:22;102796.81;;;-5.11;90.13
76694;BME280;65625;52.136;5.424;2022-12-18T08:40:49;102794.25;;;-5.07;90.13
76694;BME280;65625;52.136;5.424;2022-12-18T08:43:16;102806.69;;;-4.98;89.94
76694;BME280;65625;52.136;5.424;2022-12-18T08:46:01;102791.91;;;-4.92;90.04
76694;BME280;65625;52.136;5.424;2022-12-18T08:48:27;102787.63;;;-4.85;89.60
76694;BME280;65625;52.136;5.424;2022-12-18T08:50:58;102794.78;;;-4.80;89.59
76694;BME280;65625;52.136;5.424;2022-12-18T08:53:25;102799.28;;;-4.74;89.53
76694;BME280;65625;52.136;5.424;2022-12-18T08:55:59;102795.03;;;-4.66;89.61
76694;BME280;65625;52.136;5.424;2022-12-18T08:58:25;102783.81;;;-4.55;89.16
76694;BME280;65625;52.136;5.424;2022-12-18T09:00:52;102793.69;;;-4.42;89.43
76694;BME280;65625;52.136;5.424;2022-12-18T09:03:19;102801.78;;;-4.33;88.71
76694;BME280;65625;52.136;5.424;2022-12-18T09:05:46;102806.31;;;-4.23;89.31
76694;BME280;65625;52.136;5.424;2022-12-18T09:08:13;102809.09;;;-4.14;89.07
76694;BME280;65625;52.136;5.424;2022-12-18T09:10:44;102792.50;;;-4.07;88.91
76694;BME280;65625;52.136;5.424;2022-12-18T09:13:11;102787.41;;;-3.96;88.31
76694;BME280;65625;52.136;5.424;2022-12-18T09:18:09;102791.22;;;-3.77;88.10
76694;BME280;65625;52.136;5.424;2022-12-18T09:20:36;102781.66;;;-3.68;88.11
76694;BME280;65625;52.136;5.424;2022-12-18T09:23:04;102778.22;;;-3.62;88.33
76694;BME280;65625;52.136;5.424;2022-12-18T09:25:31;102779.19;;;-3.57;88.19
76694;BME280;65625;52.136;5.424;2022-12-18T09:28:04;102785.34;;;-3.55;87.84
76694;BME280;65625;52.136;5.424;2022-12-18T09:30:31;102781.06;;;-3.49;87.59
76694;BME280;65625;52.136;5.424;2022-12-18T09:33:00;102788.13;;;-3.45;87.40
76694;BME280;65625;52.136;5.424;2022-12-18T09:35:27;102781.13;;;-3.43;87.45
76694;BME280;65625;52.136;5.424;2022-12-18T09:37:54;102768.06;;;-3.32;87.49
76694;BME280;65625;52.136;5.424;2022-12-18T09:40:24;102762.84;;;-3.28;86.99
76694;BME280;65625;52.136;5.424;2022-12-18T09:42:55;102762.91;;;-3.20;86.72
76694;BME280;65625;52.136;5.424;2022-12-18T09:45:24;102749.78;;;-3.16;87.17
76694;BME280;65625;52.136;5.424;2022-12-18T09:47:52;102755.97;;;-3.12;86.46
76694;BME280;65625;52.136;5.424;2022-12-18T09:52:50;102751.69;;;-3.01;86.51
76694;BME280;65625;52.136;5.424;2022-12-18T09:55:25;102744.69;;;-2.96;86.38
76694;BME280;65625;52.136;5.424;2022-12-18T10:00:47;102737.75;;;-2.85;86.78
76694;BME280;65625;52.136;5.424;2022-12-18T10:03:14;102740.50;;;-2.78;86.40
76694;BME280;65625;52.136;5.424;2022-12-18T10:06:05;102741.44;;;-2.71;86.46
76694;BME280;65625;52.136;5.424;2022-12-18T10:08:58;102732.69;;;-2.64;86.56
76694;BME280;65625;52.136;5.424;2022-12-18T10:14:40;102732.84;;;-2.43;86.16
76694;BME280;65625;52.136;5.424;2022-12-18T10:17:27;102722.28;;;-2.43;85.88
76694;BME280;65625;52.136;5.424;2022-12-18T10:20:25;102716.16;;;-2.37;85.99
76694;BME280;65625;52.136;5.424;2022-12-18T10:23:04;102723.22;;;-2.36;85.48
76694;BME280;65625;52.136;5.424;2022-12-18T10:28:29;102732.94;;;-2.35;86.14
76694;BME280;65625;52.136;5.424;2022-12-18T10:30:56;102729.38;;;-2.40;85.80
76694;BME280;65625;52.136;5.424;2022-12-18T10:33:30;102719.66;;;-2.38;85.61
76694;BME280;65625;52.136;5.424;2022-12-18T10:35:58;102713.53;;;-2.37;85.72
76694;BME280;65625;52.136;5.424;2022-12-18T10:38:29;102697.69;;;-2.34;85.59
76694;BME280;65625;52.136;5.424;2022-12-18T10:41:00;102702.13;;;-2.30;84.80
76694;BME280;65625;52.136;5.424;2022-12-18T10:43:34;102715.34;;;-2.29;85.05
76694;BME280;65625;52.136;5.424;2022-12-18T10:48:50;102700.41;;;-2.21;85.01
76694;BME280;65625;52.136;5.424;2022-12-18T10:53:59;102684.56;;;-2.16;85.23
76694;BME280;65625;52.136;5.424;2022-12-18T10:56:30;102690.78;;;-2.10;84.74
76694;BME280;65625;52.136;5.424;2022-12-18T10:59:03;102688.19;;;-2.05;85.30
76694;BME280;65625;52.136;5.424;2022-12-18T11:01:52;102682.91;;;-2.01;85.28
76694;BME280;65625;52.136;5.424;2022-12-18T11:09:27;102665.31;;;-1.91;84.02
76694;BME280;65625;52.136;5.424;2022-12-18T11:11:59;102659.19;;;-1.86;85.24
76694;BME280;65625;52.136;5.424;2022-12-18T11:14:42;102650.34;;;-1.82;84.57
76694;BME280;65625;52.136;5.424;2022-12-18T11:17:24;102653.91;;;-1.80;83.99
76694;BME280;65625;52.136;5.424;2022-12-18T11:20:00;102654.78;;;-1.79;84.33
76694;BME280;65625;52.136;5.424;2022-12-18T11:22:29;102648.59;;;-1.77;83.93
76694;BME280;65625;52.136;5.424;2022-12-18T11:25:18;102641.56;;;-1.72;83.54
76694;BME280;65625;52.136;5.424;2022-12-18T11:31:12;102637.22;;;-1.61;83.40
76694;BME280;65625;52.136;5.424;2022-12-18T11:33:39;102632.81;;;-1.56;83.82
76694;BME280;65625;52.136;5.424;2022-12-18T11:36:37;102638.13;;;-1.48;82.97
76694;BME280;65625;52.136;5.424;2022-12-18T11:39:15;102645.22;;;-1.44;82.40
76694;BME280;65625;52.136;5.424;2022-12-18T11:41:56;102639.03;;;-1.42;82.42
76694;BME280;65625;52.136;5.424;2022-12-18T11:50:14;102628.47;;;-1.28;82.00
76694;BME280;65625;52.136;5.424;2022-12-18T11:52:42;102624.94;;;-1.25;81.63
76694;BME280;65625;52.136;5.424;2022-12-18T11:58:10;102620.53;;;-1.20;81.54
76694;BME280;65625;52.136;5.424;2022-12-18T12:00:50;102606.41;;;-1.19;81.29
76694;BME280;65625;52.136;5.424;2022-12-18T12:05:58;102599.34;;;-1.17;81.08
76694;BME280;65625;52.136;5.424;2022-12-18T12:11:10;102572.84;;;-1.13;81.66
76694;BME280;65625;52.136;5.424;2022-12-18T12:19:20;102569.34;;;-1.12;81.14
76694;BME280;65625;52.136;5.424;2022-12-18T12:26:52;102558.72;;;-1.06;80.70
76694;BME280;65625;52.136;5.424;2022-12-18T12:29:41;102559.63;;;-1.04;80.84
76694;BME280;65625;52.136;5.424;2022-12-18T12:40:24;102549.00;;;-0.96;80.21
76694;BME280;65625;52.136;5.424;2022-12-18T12:46:08;102542.84;;;-0.97;79.76
76694;BME280;65625;52.136;5.424;2022-12-18T12:51:08;102527.81;;;-0.92;79.61
76694;BME280;65625;52.136;5.424;2022-12-18T12:53:37;102518.06;;;-0.91;79.62
76694;BME280;65625;52.136;5.424;2022-12-18T12:56:08;102520.72;;;-0.90;79.44
76694;BME280;65625;52.136;5.424;2022-12-18T13:04:15;102518.09;;;-0.87;79.24
76694;BME280;65625;52.136;5.424;2022-12-18T13:06:50;102513.66;;;-0.82;79.84
76694;BME280;65625;52.136;5.424;2022-12-18T13:09:19;102511.00;;;-0.80;79.87
76694;BME280;65625;52.136;5.424;2022-12-18T13:11:47;102507.47;;;-0.79;79.46
76694;BME280;65625;52.136;5.424;2022-12-18T13:14:35;102513.66;;;-0.80;79.58
76694;BME280;65625;52.136;5.424;2022-12-18T13:19:41;102506.56;;;-0.80;79.23
76694;BME280;65625;52.136;5.424;2022-12-18T13:22:22;102511.88;;;-0.78;79.37
76694;BME280;65625;52.136;5.424;2022-12-18T13:24:50;102519.84;;;-0.75;79.70
76694;BME280;65625;52.136;5.424;2022-12-18T13:38:37;102497.72;;;-0.74;79.20
76694;BME280;65625;52.136;5.424;2022-12-18T13:41:24;102487.13;;;-0.73;79.18
76694;BME280;65625;52.136;5.424;2022-12-18T13:43:56;102489.78;;;-0.73;79.34
76694;BME280;65625;52.136;5.424;2022-12-18T13:46:48;102475.63;;;-0.73;79.12
76694;BME280;65625;52.136;5.424;2022-12-18T13:49:26;102479.19;;;-0.74;78.87
76694;BME280;65625;52.136;5.424;2022-12-18T13:51:57;102461.53;;;-0.75;78.78
76694;BME280;65625;52.136;5.424;2022-12-18T13:54:38;102450.91;;;-0.75;78.76
76694;BME280;65625;52.136;5.424;2022-12-18T13:57:25;102453.56;;;-0.75;78.53
76694;BME280;65625;52.136;5.424;2022-12-18T13:59:52;102455.31;;;-0.74;78.25
76694;BME280;65625;52.136;5.424;2022-12-18T14:02:24;102450.03;;;-0.74;78.19
76694;BME280;65625;52.136;5.424;2022-12-18T14:04:52;102447.38;;;-0.74;78.66
76694;BME280;65625;52.136;5.424;2022-12-18T14:07:22;102448.25;;;-0.74;78.42
76694;BME280;65625;52.136;5.424;2022-12-18T14:09:56;102440.31;;;-0.72;78.33
76694;BME280;65625;52.136;5.424;2022-12-18T14:12:50;102437.66;;;-0.72;78.69
76694;BME280;65625;52.136;5.424;2022-12-18T14:15:35;102443.84;;;-0.70;78.26
76694;BME280;65625;52.136;5.424;2022-12-18T14:18:24;102427.94;;;-0.70;78.67
76694;BME280;65625;52.136;5.424;2022-12-18T14:20:54;102429.69;;;-0.71;78.39
76694;BME280;65625;52.136;5.424;2022-12-18T14:23:30;102422.63;;;-0.69;77.92
76694;BME280;65625;52.136;5.424;2022-12-18T14:25:57;102427.03;;;-0.69;78.09
76694;BME280;65625;52.136;5.424;2022-12-18T14:28:31;102415.53;;;-0.70;77.68
76694;BME280;65625;52.136;5.424;2022-12-18T14:30:57;102404.06;;;-0.67;77.53
76694;BME280;65625;52.136;5.424;2022-12-18T14:33:26;102410.22;;;-0.68;78.04
76694;BME280;65625;52.136;5.424;2022-12-18T14:35:56;102398.75;;;-0.67;77.98
76694;BME280;65625;52.136;5.424;2022-12-18T14:38:24;102400.50;;;-0.66;77.63
76694;BME280;65625;52.136;5.424;2022-12-18T14:41:14;102397.84;;;-0.66;77.74
76694;BME280;65625;52.136;5.424;2022-12-18T14:43:46;102400.50;;;-0.65;77.31
76694;BME280;65625;52.136;5.424;2022-12-18T14:46:35;102399.63;;;-0.65;76.93
76694;BME280;65625;52.136;5.424;2022-12-18T14:49:31;102404.94;;;-0.64;77.08
76694;BME280;65625;52.136;5.424;2022-12-18T14:52:04;102389.88;;;-0.65;76.69
76694;BME280;65625;52.136;5.424;2022-12-18T14:54:35;102388.13;;;-0.66;76.93
76694;BME280;65625;52.136;5.424;2022-12-18T14:57:22;102387.25;;;-0.66;76.29
76694;BME280;65625;52.136;5.424;2022-12-18T14:59:50;102378.44;;;-0.67;76.50
76694;BME280;65625;52.136;5.424;2022-12-18T15:02:23;102389.91;;;-0.69;76.48
76694;BME280;65625;52.136;5.424;2022-12-18T15:07:43;102381.97;;;-0.69;76.49
76694;BME280;65625;52.136;5.424;2022-12-18T15:10:12;102382.84;;;-0.69;76.73
76694;BME280;65625;52.136;5.424;2022-12-18T15:12:42;102380.22;;;-0.70;76.38